ADDS METAR Data INFO
IDs: Format: Raw Decoded Include TAF

Data at: 0255 UTC 21 Jan 2018

KSWO 210253Z AUTO 16011KT 10SM CLR 14/07 A2977 RMK AO2 SLP078 T01440072 58000
KSWO 210153Z AUTO 15009KT 10SM CLR 15/05 A2978 RMK AO2 SLP080 T01500050
KSWO 210053Z 15009KT 10SM CLR 14/04 A2978 RMK AO2 SLP081 T01440044
KSWO 202353Z 16008KT 10SM CLR 16/04 A2978 RMK AO2 SLP079 T01610044 10206 20161 51005
KSWO 202253Z 18011KT 10SM CLR 19/04 A2978 RMK AO2 SLP077 T01940044
KSWO 202153Z 17015G20KT 10SM CLR 20/04 A2976 RMK AO2 SLP072 T02000044
KSWO 202053Z 18015G20KT 10SM CLR 20/05 A2976 RMK AO2 SLP071 T02000050 56025
KSWO 201953Z 18014KT 10SM CLR 19/06 A2978 RMK AO2 SLP077 T01940056
KSWO 201853Z 17013KT 10SM CLR 18/06 A2980 RMK AO2 SLP086 T01830061
KSWO 201753Z 19014KT 10SM CLR 16/06 A2984 RMK AO2 SLP099 T01610061 10161 20094 58013
KSWO 201722Z 18014KT 10SM FEW022 14/07 A2986 RMK AO2 T01440067
KSWO 201653Z 18016G22KT 10SM OVC022 14/07 A2988 RMK AO2 SLP115 T01390067
KSWO 201553Z 18016G20KT 10SM OVC020 12/07 A2988 RMK AO2 SLP116 T01220067
KSWO 201453Z 17008KT 10SM OVC018 11/07 A2987 RMK AO2 SLP114 T01060072 53007
KSWO 201353Z 17008KT 10SM OVC017 10/07 A2986 RMK AO2 SLP109 T01000072
KSWO 201253Z AUTO 17009KT 10SM OVC016 10/07 A2986 RMK AO2 SLP108 T01000072
KSWO 201153Z AUTO 18007KT 10SM OVC016 09/07 A2985 RMK AO2 SLP106 T00940072 10111 20083 55002
KSWO 201139Z AUTO 17008KT 10SM BKN016 09/07 A2985 RMK AO2 T00890067
KSWO 201053Z AUTO 17010KT 10SM SCT016 09/07 A2984 RMK AO2 SLP100 T00940067
KSWO 200953Z AUTO 18013KT 10SM OVC017 11/07 A2985 RMK AO2 SLP106 T01060072
KSWO 200853Z AUTO 18019G26KT 10SM OVC017 11/07 A2986 RMK AO2 PK WND 18026/0853 SLP106 T01110072 57010
KSWO 200753Z AUTO 18012KT 10SM OVC016 11/07 A2986 RMK AO2 SLP108 T01060067
KSWO 200653Z AUTO 18013KT 10SM OVC016 09/06 A2988 RMK AO2 SLP116 T00940061
KSWO 200553Z AUTO 18013G21KT 10SM BKN016 08/06 A2989 RMK AO2 SLP120 T00830056 10111 20078 401671044 51001
KSWO 200453Z AUTO 17012KT 10SM CLR 08/04 A2989 RMK AO2 SLP122 T00780039
KSWO 200353Z AUTO 17014KT 10SM CLR 08/03 A2989 RMK AO2 SLP121 T00830028
KSWO 200253Z AUTO 17018KT 10SM CLR 09/02 A2988 RMK AO2 SLP120 T00940017 51009
KSWO 200153Z AUTO 16013KT 10SM CLR 10/01 A2988 RMK AO2 SLP119 T01000011
KSWO 200053Z 16010KT 10SM CLR 10/M02 A2987 RMK AO2 SLP116 T01001022
KSWO 192353Z 17009KT 10SM CLR 11/M04 A2986 RMK AO2 SLP112 T01111039 10167 20111 56009
KSWO 192253Z 17013KT 10SM CLR 14/M04 A2986 RMK AO2 SLP112 T01391044
KSWO 192153Z 19014KT 10SM CLR 15/M06 A2986 RMK AO2 PK WND 18026/2133 SLP113 T01501056
KSWO 192053Z 18013KT 10SM CLR 16/M06 A2988 RMK AO2 PK WND 21029/2027 SLP119 T01611056 56035
KSWO 191953Z 19013G22KT 10SM CLR 16/M06 A2990 RMK AO2 SLP124 T01611061
KSWO 191853Z 21017G23KT 10SM CLR 14/M07 A2994 RMK AO2 SLP140 T01391067
KSWO 191753Z 19012KT 10SM CLR 12/M06 A2999 RMK AO2 SLP155 T01171061 10117 21044 58016
KSWO 191653Z 18013KT 10SM CLR 08/M06 A3001 RMK AO2 SLP164 T00781061
KSWO 191553Z 19012KT 10SM CLR 04/M07 A3002 RMK AO2 SLP168 T00441067